AirNav   Pilot Hours Calculator
 
 1079 users online  

3CN7 Alta Mesa Airpark
Wilton, California, USA

GOING TO WILTON?


FAA INFORMATION EFFECTIVE 01 DECEMBER 2022

Location

FAA Identifier: 3CN7
Lat/Long: 38-22-45.0000N 121-13-18.0000W
38-22.750000N 121-13.300000W
38.3791667,-121.2216667
(estimated)
Elevation: 125 ft. / 38 m (estimated)
From city: 1 mile S of WILTON, CA
Time zone: UTC -8 (UTC -7 during Daylight Saving Time)
Zip code: 95693

Airport Operations

Airport use: Private use. Permission required prior to landing
Activation date: 04/2010
Control tower: no
ARTCC: OAKLAND CENTER
FSS: RANCHO MURIETA FLIGHT SERVICE STATION
Attendance: IREG
Segmented circle: no

Airport Communications

WX AWOS-3PT at MHR (11 nm N): 118.325 (916-366-3371)
WX ASOS at SAC (15 nm NW): PHONE 916-421-0923
WX AWOS-3 at MCC (19 nm NW): 125.975 (916-641-1272)

Nearby radio navigation aids

VOR radial/distance  VOR name  Freq  Var
SACr087/16.0SACRAMENTO VORTAC115.2017E
MCCr137/19.3MC CLELLAN VOR/DME109.2017E
LINr314/21.0LINDEN VOR/DME114.8017E
HNWr210/30.4HANGTOWN VOR/DME115.5017E

Airport Services

Runway Information

Runway 16/34

Dimensions: 2600 x 40 ft. / 792 x 12 m
Surface: asphalt, in good condition
RUNWAY 16  RUNWAY 34
Traffic pattern: leftleft
Displaced threshold: 250 ft.250 ft.
Obstructions: 60 ft. trees, 1200 ft. from runway
3 FT FENCE 25 FT N OF RY 16/34.
1 ft. road, 25 ft. from runway

Airport Ownership and Management from official FAA records

Ownership: Privately-owned
Owner: ALTA MESA AIRPARK ASSOC.
10361 ALTA MESA RD
WILTON, CA 95693
Phone (916) 541-9353
Manager: JIM KNIGHT
10361 ALTA MESA RD
WILTON, CA 95693
Phone (916) 541-9353

Airport Operational Statistics

Aircraft based on the field: 10
Single engine airplanes: 10
    

Additional Remarks

FOR CD CTC NORCAL APCH AT 916-361-6874.

Instrument Procedures

There are no published instrument procedures at 3CN7.

Some nearby airports with instrument procedures:

1O3 - Lodi Airport (11 nm S)
KMHR - Sacramento Mather Airport (11 nm N)
KSAC - Sacramento Executive Airport (15 nm NW)
KMCC - Mc Clellan Airfield (19 nm NW)
KJAQ - Westover Field / Amador County Airport (20 nm E)
 
Loc | Ops | Rwys | IFR | FBO | Links
Com | Nav | Svcs | Stats | Notes
Aerial photo
WARNING: Photo may not be current or correct
Aerial photo of 3CN7 (Alta Mesa Airpark)
Photo by Ron Gravitt
Photo taken 27-Jul-2007

Do you have a better or more recent aerial photo of Alta Mesa Airpark that you would like to share? If so, please send us your photo.

 
Sectional chart

 
Airport distance calculator
Flying to Alta Mesa Airpark? Find the distance to fly.

From to 3CN7

Sunrise and sunset
Times for 06-Dec-2022
 Local
(UTC-8)
 Zulu
(UTC)
Morning civil twilight06:3914:39
Sunrise07:0915:09
Sunset16:4300:43
Evening civil twilight17:1301:13

Current date and time
Zulu (UTC)  07-Dec-2022 03:24:35
Local (UTC-8)  06-Dec-2022 19:24:35
 
METAR
KMHR 
10nm N 
070250Z AUTO 00000KT 10SM CLR 08/07 A3007 RMK A01
KSAC 
15nm NW 
070253Z 00000KT CLR 08/06 A3008 RMK AO2 SLP186 T00830061 53007 $
KMCC 
19nm NW 
070255Z AUTO 00000KT 10SM CLR 09/07 A3008 RMK AO2
TAF
KMHR 
10nm N 
062255Z 0623/0718 VRB05KT P6SM VCTS FEW050CB SCT250 TEMPO 0623/0624 3SM TSRA BKN040CB FM071100 VRB05KT 6SM BR SKC FM071700 00000KT P6SM SCT250
KSAC 
15nm NW 
061734Z 0618/0718 VRB05KT P6SM BKN050 BKN150 FM062000 VRB05KT P6SM SCT250 FM070900 VRB02KT 4SM BR SCT250 FM071500 00000KT 1 1/2SM BR FEW250 FM071700 19002KT P6SM FEW250
KMCC 
19nm NW 
061734Z 0618/0718 31005KT P6SM SCT040 BKN050 BKN150 FM062000 VRB05KT P6SM SCT250 FM071100 VRB03KT 6SM BR SKC FM071500 VRB03KT 4SM BR SKC
NOTAMs
Click for the latest NOTAMs
NOTAMs are issued by the DoD/FAA and will open in a separate window not controlled by AirNav.

 

 
 

Would you like to see your business listed on this page?

 If your business provides an interesting product or service to pilots, flight crews, aircraft, or users of the Alta Mesa Airpark, you should consider listing it here.  To start the listing process, click on the button below
 
Add a business
 

Other Pages about Alta Mesa Airpark

Update a link
 
Copyright © AirNav, LLC. All rights reserved. Privacy Policy  Contact